createdAt,value
2014-08-09T00:00:16.163Z,66.45
2014-08-09T00:01:21.150Z,66.11
2014-08-09T00:02:25.823Z,65.9
2014-08-09T00:03:30.826Z,65.85
2014-08-09T00:04:35.813Z,66.86
2014-08-09T00:05:40.502Z,67.47
2014-08-09T00:06:45.473Z,67.8
2014-08-09T00:07:50.460Z,67.56
2014-08-09T00:08:55.446Z,66.67
2014-08-09T00:10:00.432Z,67.07
2014-08-09T00:11:05.419Z,67.21
2014-08-09T00:12:10.092Z,67.25
2014-08-09T00:13:15.078Z,67.05
2014-08-09T00:14:20.362Z,66.82
2014-08-09T00:15:25.333Z,67.19
2014-08-09T00:16:30.022Z,67.36
2014-08-09T00:17:35.010Z,67.13
2014-08-09T00:18:39.699Z,66.91
2014-08-09T00:19:44.373Z,66.9
2014-08-09T00:20:49.062Z,66.78
2014-08-09T00:21:53.751Z,66.32
2014-08-09T00:22:58.442Z,65.64
2014-08-09T00:24:03.131Z,66.14
2014-08-09T00:25:07.821Z,66.5
2014-08-09T00:26:12.495Z,65.2
2014-08-09T00:27:17.183Z,65.85
2014-08-09T00:28:22.169Z,66.09
2014-08-09T00:29:26.860Z,66.05
2014-08-09T00:30:31.846Z,65.69
2014-08-09T00:31:36.834Z,66.64
2014-08-09T00:32:41.508Z,67.07
2014-08-09T00:33:46.197Z,67.17
2014-08-09T00:34:51.183Z,66.46
2014-08-09T00:35:56.170Z,65.46
2014-08-09T00:37:00.844Z,64.82
2014-08-09T00:38:05.829Z,64.41
2014-08-09T00:39:10.519Z,64.11
2014-08-09T00:40:15.193Z,64.18
2014-08-09T00:41:19.883Z,64.28
2014-08-09T00:42:24.571Z,64.28
2014-08-09T00:43:29.542Z,64.65
2014-08-09T00:44:34.234Z,64.29
2014-08-09T00:45:38.923Z,65.15
2014-08-09T00:46:43.910Z,64.82
2014-08-09T00:47:48.583Z,64.66
2014-08-09T00:48:53.273Z,64.7
2014-08-09T00:49:57.961Z,64.63
2014-08-09T00:51:02.652Z,64.92
2014-08-09T00:52:07.325Z,64.68
2014-08-09T00:53:12.311Z,64.99
2014-08-09T00:54:17.001Z,64.99
2014-08-09T00:55:21.690Z,64.86
2014-08-09T00:56:26.364Z,64.65
2014-08-09T00:57:31.350Z,64.58
2014-08-09T00:58:36.339Z,64.27
2014-08-09T00:59:41.325Z,64.34
2014-08-09T01:00:46.312Z,64.04
2014-08-09T01:01:51.017Z,64.38
2014-08-09T01:02:55.706Z,64.54
2014-08-09T01:04:00.989Z,64.26
2014-08-09T01:05:05.679Z,64.22
2014-08-09T01:06:10.367Z,63.88
2014-08-09T01:07:15.041Z,63.96
2014-08-09T01:08:19.732Z,64.5
2014-08-09T01:09:24.717Z,64.68
2014-08-09T01:10:29.407Z,64.5
2014-08-09T01:11:34.081Z,64.46
2014-08-09T01:12:38.772Z,65.33
2014-08-09T01:13:43.462Z,65.39
2014-08-09T01:14:48.151Z,65.59
2014-08-09T01:15:52.825Z,65.85
2014-08-09T01:16:57.513Z,65.68
2014-08-09T01:18:02.501Z,65.65
2014-08-09T01:19:07.768Z,64.92
2014-08-09T01:20:12.755Z,64.36
2014-08-09T01:21:17.444Z,64.68
2014-08-09T01:22:22.134Z,64.86
2014-08-09T01:23:27.104Z,65.23
2014-08-09T01:24:32.090Z,65.68
2014-08-09T01:25:36.780Z,65.98
2014-08-09T01:26:41.469Z,65.7
2014-08-09T01:27:46.159Z,66.02
2014-08-09T01:28:51.145Z,66.51
2014-08-09T01:29:55.835Z,67.17
2014-08-09T01:31:00.509Z,67.49
2014-08-09T01:32:05.199Z,67.4
2014-08-09T01:33:10.185Z,67.09
2014-08-09T01:34:15.171Z,67.64
2014-08-09T01:35:20.158Z,67.31
2014-08-09T01:36:25.144Z,67.32
2014-08-09T01:37:29.834Z,67.04
2014-08-09T01:38:34.523Z,67.11
2014-08-09T01:39:39.214Z,67.22
2014-08-09T01:40:43.904Z,66.79
2014-08-09T01:41:48.577Z,66.77
2014-08-09T01:42:53.268Z,66.79
2014-08-09T01:43:57.956Z,65.54
2014-08-09T01:45:02.647Z,65.56
2014-08-09T01:46:07.320Z,65.12
2014-08-09T01:47:12.010Z,64.84
2014-08-09T01:48:16.981Z,64.6
2014-08-09T01:49:21.670Z,64.16
2014-08-09T01:50:26.360Z,64.08
2014-08-09T01:51:31.034Z,63.66
2014-08-09T01:52:35.723Z,63.55
2014-08-09T01:53:41.006Z,63.52
2014-08-09T01:54:45.696Z,63.24
2014-08-09T01:55:50.370Z,63.19
2014-08-09T01:56:55.357Z,62.99
2014-08-09T01:58:00.342Z,63.27
2014-08-09T01:59:05.032Z,62.82
2014-08-09T02:00:09.721Z,62.54
2014-08-09T02:01:14.411Z,62.39
2014-08-09T02:02:19.100Z,62.72
2014-08-09T02:03:23.774Z,62.78
2014-08-09T02:04:28.776Z,63.18
2014-08-09T02:05:33.762Z,62.5
2014-08-09T02:06:38.438Z,62.78
2014-08-09T02:07:43.128Z,62.61
2014-08-09T02:08:47.817Z,62.73
2014-08-09T02:09:52.803Z,62.32
2014-08-09T02:10:57.789Z,62.03
2014-08-09T02:12:02.479Z,62.36
2014-08-09T02:13:07.178Z,62.14
2014-08-09T02:14:11.892Z,61.95
2014-08-09T02:15:16.232Z,61.76
2014-08-09T02:16:20.962Z,61.69
2014-08-09T02:17:25.675Z,61.78
2014-08-09T02:18:29.711Z,62.19
2014-08-09T02:19:34.416Z,62.12
2014-08-09T02:20:39.433Z,62.53
2014-08-09T02:21:44.121Z,62.69
2014-08-09T02:22:48.823Z,62.21
2014-08-09T02:23:53.518Z,62.19
2014-08-09T02:24:58.214Z,61.86
2014-08-09T02:26:02.893Z,62.21
2014-08-09T02:27:07.587Z,62.58
2014-08-09T02:28:12.577Z,62.44
2014-08-09T02:29:17.566Z,62.3
2014-08-09T02:30:22.243Z,62.93
2014-08-09T02:31:26.933Z,63.27
2014-08-09T02:32:31.626Z,62.87
2014-08-09T02:33:36.613Z,62.59
2014-08-09T02:34:41.288Z,62.98
2014-08-09T02:35:45.978Z,62.67
2014-08-09T02:36:50.669Z,62.89
2014-08-09T02:37:55.640Z,63.03
2014-08-09T02:39:00.329Z,63.45
2014-08-09T02:40:05.613Z,63.25
2014-08-09T02:41:10.303Z,63.12
2014-08-09T02:42:14.991Z,63.07
2014-08-09T02:43:19.979Z,62.66
2014-08-09T02:44:24.964Z,62.52
2014-08-09T02:45:29.951Z,62.95
2014-08-09T02:46:34.937Z,62.84
2014-08-09T02:47:39.941Z,63.13
2014-08-09T02:48:44.630Z,63.1
2014-08-09T02:49:49.304Z,63.08
2014-08-09T02:50:54.291Z,62.96
2014-08-09T02:51:59.277Z,62.59
2014-08-09T02:53:04.264Z,62.64
2014-08-09T02:54:08.954Z,62.95
2014-08-09T02:55:14.221Z,62.65
2014-08-09T02:56:18.910Z,62.87
2014-08-09T02:57:23.600Z,62.87
2014-08-09T02:58:28.587Z,63.19
2014-08-09T02:59:33.558Z,62.73
2014-08-09T03:00:38.543Z,62.73
2014-08-09T03:01:43.529Z,62.77
2014-08-09T03:02:48.517Z,62.7
2014-08-09T03:03:53.503Z,62.45
2014-08-09T03:04:58.474Z,62.74
2014-08-09T03:06:03.163Z,63.19
2014-08-09T03:07:07.853Z,63.38
2014-08-09T03:08:12.542Z,63.57
2014-08-09T03:09:17.216Z,63.89
2014-08-09T03:10:22.202Z,63.15
2014-08-09T03:11:27.188Z,62.77
2014-08-09T03:12:31.878Z,62.73
2014-08-09T03:13:36.864Z,62.6
2014-08-09T03:14:42.149Z,62.4
2014-08-09T03:15:46.823Z,61.6
2014-08-09T03:16:51.809Z,61.9
2014-08-09T03:17:56.796Z,62.75
2014-08-09T03:19:01.782Z,63
2014-08-09T03:20:06.768Z,62.92
2014-08-09T03:21:11.754Z,63.01
2014-08-09T03:22:16.740Z,62.36
2014-08-09T03:23:21.727Z,62.09
2014-08-09T03:24:26.416Z,62.18
2014-08-09T03:25:31.715Z,61.83
2014-08-09T03:26:36.405Z,62.47
2014-08-09T03:27:41.096Z,62.43
2014-08-09T03:28:46.067Z,62.22
2014-08-09T03:29:50.756Z,62.05
2014-08-09T03:30:55.446Z,62.24
2014-08-09T03:32:00.135Z,61.94
2014-08-09T03:33:05.105Z,62.4
2014-08-09T03:34:10.389Z,62.61
2014-08-09T03:35:15.079Z,61.92
2014-08-09T03:36:20.064Z,61.88
2014-08-09T03:37:24.755Z,61.9
2014-08-09T03:38:28.741Z,61.72
2014-08-09T03:39:33.727Z,62.15
2014-08-09T03:40:38.417Z,61.52
2014-08-09T03:41:43.403Z,61.96
2014-08-09T03:42:48.390Z,60.82
2014-08-09T03:43:53.376Z,60.71
2014-08-09T03:44:58.066Z,61.12
2014-08-09T03:46:02.739Z,61.35
2014-08-09T03:47:07.726Z,61
2014-08-09T03:48:12.415Z,60.99
2014-08-09T03:49:17.105Z,60.92
2014-08-09T03:50:21.795Z,61.03
2014-08-09T03:51:26.484Z,61.17
2014-08-09T03:52:31.173Z,61.69
2014-08-09T03:53:35.847Z,61.61
2014-08-09T03:54:40.834Z,60.85
2014-08-09T03:55:45.523Z,60.84
2014-08-09T03:56:50.509Z,61.23
2014-08-09T03:57:55.498Z,61.61
2014-08-09T03:59:00.484Z,61.46
2014-08-09T04:00:05.471Z,60.91
2014-08-09T04:01:10.754Z,61
2014-08-09T04:02:15.726Z,61.23
2014-08-09T04:03:20.415Z,61.22
2014-08-09T04:04:25.401Z,61.52
2014-08-09T04:05:30.388Z,62.04
2014-08-09T04:06:35.358Z,61.75
2014-08-09T04:07:40.344Z,62.45
2014-08-09T04:08:45.033Z,62.33
2014-08-09T04:09:49.723Z,62.06
2014-08-09T04:10:54.694Z,62.12
2014-08-09T04:11:59.681Z,61.6
2014-08-09T04:13:04.371Z,61.93
2014-08-09T04:14:09.060Z,61.99
2014-08-09T04:15:13.733Z,61.57
2014-08-09T04:16:18.422Z,61.56
2014-08-09T04:17:23.112Z,61.94
2014-08-09T04:18:27.786Z,62.68
2014-08-09T04:19:32.475Z,61.89
2014-08-09T04:20:37.165Z,62.39
2014-08-09T04:21:41.839Z,62.87
2014-08-09T04:22:46.528Z,62.51
2014-08-09T04:23:50.827Z,61.43
2014-08-09T04:24:55.815Z,60.79
2014-08-09T04:26:00.489Z,60.66
2014-08-09T04:27:05.179Z,61.95
2014-08-09T04:28:10.461Z,61.93
2014-08-09T04:29:15.448Z,61.41
2014-08-09T04:30:20.435Z,61.2
2014-08-09T04:31:25.422Z,60.24
2014-08-09T04:32:30.111Z,60.92
2014-08-09T04:33:35.098Z,60.89
2014-08-09T04:34:39.787Z,61.1
2014-08-09T04:35:44.476Z,60.45
2014-08-09T04:36:49.166Z,60.93
2014-08-09T04:37:53.855Z,60.6
2014-08-09T04:38:58.529Z,60.58
2014-08-09T04:40:03.218Z,60
2014-08-09T04:41:07.908Z,59.78
2014-08-09T04:42:12.597Z,60.19
2014-08-09T04:43:17.584Z,60.74
2014-08-09T04:44:22.273Z,60.04
2014-08-09T04:45:27.260Z,60.16
2014-08-09T04:46:31.934Z,60.93
2014-08-09T04:47:37.217Z,61.75
2014-08-09T04:48:41.906Z,61.35
2014-08-09T04:49:46.877Z,61.14
2014-08-09T04:50:51.567Z,61.15
2014-08-09T04:51:56.256Z,61.89
2014-08-09T04:53:00.946Z,62
2014-08-09T04:54:05.916Z,62.13
2014-08-09T04:55:10.903Z,61.01
2014-08-09T04:56:15.592Z,61.68
2014-08-09T04:57:20.282Z,60.79
2014-08-09T04:58:25.252Z,61.07
2014-08-09T04:59:30.538Z,60.81
2014-08-09T05:00:35.525Z,61.85
2014-08-09T05:01:40.510Z,61.61
2014-08-09T05:02:45.201Z,62.35
2014-08-09T05:03:50.187Z,62.13
2014-08-09T05:04:54.877Z,61.73
2014-08-09T05:05:59.566Z,61.21
2014-08-09T05:07:04.255Z,60.56
2014-08-09T05:08:09.226Z,60.5
2014-08-09T05:09:14.212Z,60.97
2014-08-09T05:10:19.198Z,61.56
2014-08-09T05:11:23.888Z,60.24
2014-08-09T05:12:28.874Z,60.08
2014-08-09T05:13:33.860Z,61.11
2014-08-09T05:14:38.549Z,61.17
2014-08-09T05:15:43.522Z,61.17
2014-08-09T05:16:48.508Z,61.81
2014-08-09T05:17:53.198Z,61.47
2014-08-09T05:18:57.887Z,61.23
2014-08-09T05:20:02.561Z,60.81
2014-08-09T05:21:07.251Z,60.75
2014-08-09T05:22:12.237Z,61.18
2014-08-09T05:23:16.911Z,60.91
2014-08-09T05:24:21.897Z,60.74
2014-08-09T05:25:26.587Z,61.04
2014-08-09T05:26:31.275Z,59.24
2014-08-09T05:27:35.965Z,59.68
2014-08-09T05:28:40.952Z,60.27
2014-08-09T05:29:45.252Z,60.15
2014-08-09T05:30:49.926Z,61.07
2014-08-09T05:31:54.615Z,61.07
2014-08-09T05:32:59.305Z,60.18
2014-08-09T05:34:04.291Z,60.9
2014-08-09T05:35:09.262Z,59.58
2014-08-09T05:36:14.248Z,60.18
2014-08-09T05:37:18.938Z,59.77
2014-08-09T05:38:23.626Z,59.48
2014-08-09T05:39:28.301Z,59.79
2014-08-09T05:40:32.991Z,60.72
2014-08-09T05:41:37.679Z,60.99
2014-08-09T05:42:42.371Z,59.98
2014-08-09T05:43:47.060Z,59.44
2014-08-09T05:44:51.750Z,59.78
2014-08-09T05:45:56.736Z,60.28
2014-08-09T05:47:01.410Z,60.02
2014-08-09T05:48:06.099Z,59.79
2014-08-09T05:49:10.788Z,59.99
2014-08-09T05:50:15.477Z,60.69
2014-08-09T05:51:20.465Z,60.35
2014-08-09T05:52:25.153Z,60.38
2014-08-09T05:53:30.125Z,60.32
2014-08-09T05:54:34.127Z,59.63
2014-08-09T05:55:39.112Z,58.7
2014-08-09T05:56:43.805Z,59.28
2014-08-09T05:57:48.478Z,57.8
2014-08-09T05:58:53.167Z,57.64
2014-08-09T05:59:58.154Z,56.81
2014-08-09T06:01:03.140Z,57.2
2014-08-09T06:02:08.111Z,57.56
2014-08-09T06:03:13.097Z,57.42
2014-08-09T06:04:17.787Z,57.83
2014-08-09T06:05:22.475Z,55.74
2014-08-09T06:06:27.149Z,55.79
2014-08-09T06:07:31.840Z,57.58
2014-08-09T06:08:36.529Z,57.03
2014-08-09T06:09:41.219Z,57.95
2014-08-09T06:10:45.893Z,58.27
2014-08-09T06:11:50.583Z,58.13
2014-08-09T06:12:55.569Z,58.63
2014-08-09T06:14:00.540Z,60.24
2014-08-09T06:15:05.230Z,59.29
2014-08-09T06:16:09.919Z,59.02
2014-08-09T06:17:14.890Z,58.66
2014-08-09T06:18:19.578Z,59.46
2014-08-09T06:19:24.565Z,59.1
2014-08-09T06:20:29.551Z,59.02
2014-08-09T06:21:34.834Z,58.43
2014-08-09T06:22:39.822Z,55.63
2014-08-09T06:23:44.512Z,51.01
2014-08-09T06:24:49.202Z,47.84
2014-08-09T06:25:53.891Z,43.88
2014-08-09T06:26:58.878Z,41.79
2014-08-09T06:28:03.566Z,39.73
2014-08-09T06:29:08.257Z,42.43
2014-08-09T06:30:13.243Z,40.81
2014-08-09T06:31:18.229Z,38.24
2014-08-09T06:32:22.919Z,35.57
2014-08-09T06:33:27.624Z,34.65
2014-08-09T06:34:32.313Z,34.12
2014-08-09T06:35:37.003Z,33.92
2014-08-09T06:36:41.692Z,35.07
2014-08-09T06:37:46.694Z,36.17
2014-08-09T06:38:51.384Z,37.01
2014-08-09T06:39:56.369Z,36.68
2014-08-09T06:41:01.357Z,38.83
2014-08-09T06:42:06.046Z,41.88
2014-08-09T06:43:11.344Z,38.31
2014-08-09T06:44:16.035Z,37.6
2014-08-09T06:45:20.740Z,39.36
2014-08-09T06:46:25.726Z,40.51
2014-08-09T06:47:30.416Z,41.56
2014-08-09T06:48:35.105Z,44.25
2014-08-09T06:49:39.795Z,45.38
2014-08-09T06:50:44.799Z,46.52
2014-08-09T06:51:49.487Z,47.2
2014-08-09T06:52:54.193Z,47.11
2014-08-09T06:53:59.180Z,47.89
2014-08-09T06:55:03.869Z,48.51
2014-08-09T06:56:08.854Z,50.1
2014-08-09T06:57:13.544Z,50.73
2014-08-09T06:58:18.249Z,50.73
2014-08-09T06:59:22.923Z,51.24
2014-08-09T07:00:27.909Z,50.91
2014-08-09T07:01:32.599Z,51.79
2014-08-09T07:02:37.288Z,51.8
2014-08-09T07:03:41.978Z,51.84
2014-08-09T07:04:46.667Z,52.96
2014-08-09T07:05:51.654Z,52.89
2014-08-09T07:06:56.343Z,53.53
2014-08-09T07:08:01.033Z,54.08
2014-08-09T07:09:05.722Z,54.06
2014-08-09T07:10:10.412Z,54.31
2014-08-09T07:11:15.697Z,54.58
2014-08-09T07:12:20.683Z,53.26
2014-08-09T07:13:25.373Z,53.63
2014-08-09T07:14:30.047Z,53.68
2014-08-09T07:15:34.346Z,54.32
2014-08-09T07:16:39.035Z,53.89
2014-08-09T07:17:44.022Z,53.68
2014-08-09T07:18:48.711Z,53.57
2014-08-09T07:19:53.401Z,53.74
2014-08-09T07:20:58.090Z,53.72
2014-08-09T07:22:02.780Z,54.22
2014-08-09T07:23:08.063Z,53.2
2014-08-09T07:24:12.737Z,53.3
2014-08-09T07:25:16.739Z,53.16
2014-08-09T07:26:21.725Z,53.49
2014-08-09T07:27:26.414Z,53.34
2014-08-09T07:28:31.401Z,54.4
2014-08-09T07:29:36.090Z,54.1
2014-08-09T07:30:41.076Z,53.42
2014-08-09T07:31:45.767Z,53.63
2014-08-09T07:32:50.754Z,54.21
2014-08-09T07:33:56.038Z,53.71
2014-08-09T07:35:00.726Z,52.98
2014-08-09T07:36:05.714Z,53.58
2014-08-09T07:37:10.700Z,52.91
2014-08-09T07:38:15.390Z,53.03
2014-08-09T07:39:20.360Z,52.82
2014-08-09T07:40:25.049Z,53.22
2014-08-09T07:41:29.739Z,52.28
2014-08-09T07:42:34.428Z,51.47
2014-08-09T07:43:39.118Z,51.59
2014-08-09T07:44:43.808Z,51.59
2014-08-09T07:45:48.779Z,52.12
2014-08-09T07:46:52.781Z,51.62
2014-08-09T07:47:57.470Z,51.44
2014-08-09T07:49:02.456Z,51.58
2014-08-09T07:50:07.443Z,50.82
2014-08-09T07:51:12.133Z,52.48
2014-08-09T07:52:16.822Z,52.08
2014-08-09T07:53:21.496Z,51.8
2014-08-09T07:54:26.795Z,52.52
2014-08-09T07:55:31.781Z,52.13
2014-08-09T07:56:36.767Z,52.66
2014-08-09T07:57:41.457Z,54.09
2014-08-09T07:58:46.147Z,53.46
2014-08-09T07:59:51.431Z,54.24
2014-08-09T08:00:56.137Z,53.88
2014-08-09T08:02:00.841Z,54.81
2014-08-09T08:03:05.827Z,54.5
2014-08-09T08:04:10.518Z,55
2014-08-09T08:05:15.503Z,54.74
2014-08-09T08:06:20.489Z,54.52
2014-08-09T08:07:25.179Z,54.9
2014-08-09T08:08:30.165Z,55.08
2014-08-09T08:09:35.151Z,55.12
2014-08-09T08:10:39.841Z,55.06
2014-08-09T08:11:44.515Z,55.41
2014-08-09T08:12:49.205Z,55.49
2014-08-09T08:13:53.894Z,55.65
2014-08-09T08:14:59.177Z,55.28
2014-08-09T08:16:03.476Z,55.54
2014-08-09T08:17:08.166Z,56.51
2014-08-09T08:18:12.855Z,55.79
2014-08-09T08:19:17.842Z,55.57
2014-08-09T08:20:22.531Z,55.71
2014-08-09T08:21:27.519Z,55.49
2014-08-09T08:22:32.193Z,56.25
2014-08-09T08:23:36.883Z,55.86
2014-08-09T08:24:41.572Z,56.25
2014-08-09T08:25:46.262Z,57.37
2014-08-09T08:26:50.936Z,55.68
2014-08-09T08:27:55.922Z,55.97
2014-08-09T08:29:00.908Z,55.55
2014-08-09T08:30:05.598Z,55.25
2014-08-09T08:31:10.584Z,56.23
2014-08-09T08:32:15.274Z,55.69
2014-08-09T08:33:19.948Z,56.03
2014-08-09T08:34:24.637Z,54.92
2014-08-09T08:35:28.639Z,55.23
2014-08-09T08:36:33.922Z,55.19
2014-08-09T08:37:39.206Z,55.59
2014-08-09T08:38:44.192Z,55.86
2014-08-09T08:39:49.475Z,55.63
2014-08-09T08:40:54.462Z,55.25
2014-08-09T08:41:59.745Z,55.72
2014-08-09T08:43:04.732Z,55.54
2014-08-09T08:44:09.421Z,55.47
2014-08-09T08:45:14.705Z,56.12
2014-08-09T08:46:19.394Z,56.03
2014-08-09T08:47:23.396Z,54.98
2014-08-09T08:48:28.086Z,55.47
2014-08-09T08:49:32.775Z,56
2014-08-09T08:50:37.465Z,55.82
2014-08-09T08:51:42.138Z,56.57
2014-08-09T08:52:46.829Z,56.41
2014-08-09T08:53:51.816Z,56.07
2014-08-09T08:54:56.505Z,55.79
2014-08-09T08:56:01.789Z,55.65
2014-08-09T08:57:06.462Z,56.15
2014-08-09T08:58:11.152Z,55.72
2014-08-09T08:59:15.841Z,55.51
2014-08-09T09:00:20.531Z,55.17
2014-08-09T09:01:25.205Z,55.34
2014-08-09T09:02:29.893Z,56.04
2014-08-09T09:03:34.583Z,55.79
2014-08-09T09:04:39.569Z,55.49
2014-08-09T09:05:44.540Z,55.47
2014-08-09T09:06:49.528Z,54.79
2014-08-09T09:07:54.218Z,54.76
2014-08-09T09:08:59.204Z,55.32
2014-08-09T09:10:03.894Z,55.04
2014-08-09T09:11:08.583Z,54.78
2014-08-09T09:12:13.257Z,54.73
2014-08-09T09:13:17.946Z,54.49
2014-08-09T09:14:22.933Z,54.43
2014-08-09T09:15:27.622Z,55.5
2014-08-09T09:16:32.312Z,55.25
2014-08-09T09:17:37.595Z,54.47
2014-08-09T09:18:42.285Z,54.84
2014-08-09T09:19:46.990Z,53.84
2014-08-09T09:20:51.680Z,54.26
2014-08-09T09:21:56.369Z,53.74
2014-08-09T09:23:01.355Z,53.83
2014-08-09T09:24:06.046Z,53.54
2014-08-09T09:25:10.719Z,54.66
2014-08-09T09:26:15.408Z,53.71
2014-08-09T09:27:20.099Z,55
2014-08-09T09:28:24.771Z,54.62
2014-08-09T09:29:29.478Z,54.41
2014-08-09T09:30:34.167Z,54.13
2014-08-09T09:31:39.153Z,54.81
2014-08-09T09:32:44.123Z,54.89
2014-08-09T09:33:48.815Z,54.58
2014-08-09T09:34:53.801Z,54.18
2014-08-09T09:35:58.491Z,54.4
2014-08-09T09:37:03.180Z,55.33
2014-08-09T09:38:07.869Z,54.66
2014-08-09T09:39:12.855Z,55.26
2014-08-09T09:40:17.544Z,54.76
2014-08-09T09:41:22.531Z,54.93
2014-08-09T09:42:27.220Z,55.19
2014-08-09T09:43:31.911Z,55.38
2014-08-09T09:44:36.599Z,55.98
2014-08-09T09:45:41.289Z,55.2
2014-08-09T09:46:46.275Z,55.09
2014-08-09T09:47:50.951Z,55.7
2014-08-09T09:48:55.937Z,54.59
2014-08-09T09:50:00.626Z,54.85
2014-08-09T09:51:05.613Z,54.92
2014-08-09T09:52:10.318Z,54.97
2014-08-09T09:53:15.007Z,53.75
2014-08-09T09:54:19.696Z,53.94
2014-08-09T09:55:24.683Z,53.45
2014-08-09T09:56:29.388Z,53.35
2014-08-09T09:57:34.374Z,53.48
2014-08-09T09:58:39.064Z,53.7
2014-08-09T09:59:44.035Z,53.11
2014-08-09T10:00:48.726Z,52.99
2014-08-09T10:01:53.416Z,53.17
2014-08-09T10:02:58.104Z,53.54
2014-08-09T10:04:03.091Z,53.48
2014-08-09T10:05:07.781Z,53.51
2014-08-09T10:06:12.767Z,52.61
2014-08-09T10:07:17.441Z,52.36
2014-08-09T10:08:22.131Z,52.66
2014-08-09T10:09:27.117Z,52.58
2014-08-09T10:10:31.807Z,52.44
2014-08-09T10:11:36.792Z,52.22
2014-08-09T10:12:41.481Z,51.87
2014-08-09T10:13:46.172Z,52.8
2014-08-09T10:14:51.158Z,52.57
2014-08-09T10:15:56.442Z,52.63
2014-08-09T10:17:01.131Z,51.41
2014-08-09T10:18:06.116Z,51.07
2014-08-09T10:19:11.401Z,50.83
2014-08-09T10:20:16.090Z,51.27
2014-08-09T10:21:21.076Z,50.86
2014-08-09T10:22:25.766Z,50.55
2014-08-09T10:23:30.440Z,50.05
2014-08-09T10:24:35.145Z,50.84
2014-08-09T10:25:39.835Z,49.9
2014-08-09T10:26:44.821Z,50.45
2014-08-09T10:27:49.511Z,49.11
2014-08-09T10:28:53.810Z,48.45
2014-08-09T10:29:58.798Z,48.09
2014-08-09T10:31:03.487Z,47.72
2014-08-09T10:32:08.176Z,48.27
2014-08-09T10:33:12.865Z,48.21
2014-08-09T10:34:17.556Z,48.08
2014-08-09T10:35:22.245Z,44.8
2014-08-09T10:36:26.934Z,45.63
2014-08-09T10:37:31.623Z,45.03
2014-08-09T10:38:36.610Z,44.93
2014-08-09T10:39:41.299Z,44.62
2014-08-09T10:40:45.301Z,44.94
2014-08-09T10:41:49.993Z,44.85
2014-08-09T10:42:54.681Z,46.45
2014-08-09T10:43:59.372Z,45.74
2014-08-09T10:45:04.358Z,45.47
2014-08-09T10:46:09.344Z,45.11
2014-08-09T10:47:14.034Z,45.2
2014-08-09T10:48:18.723Z,44.83
2014-08-09T10:49:23.413Z,45.31
2014-08-09T10:50:28.118Z,45.15
2014-08-09T10:51:32.807Z,44.99
2014-08-09T10:52:37.497Z,46.1
2014-08-09T10:53:42.187Z,44.5
2014-08-09T10:54:46.876Z,44.15
2014-08-09T10:55:51.566Z,43.97
2014-08-09T10:56:56.271Z,43.33
2014-08-09T10:58:00.961Z,43.74
2014-08-09T10:59:05.650Z,44.42
2014-08-09T11:00:10.636Z,45.92
2014-08-09T11:01:15.325Z,46.76
2014-08-09T11:02:20.015Z,47.6
2014-08-09T11:03:25.001Z,47.53
2014-08-09T11:04:29.691Z,47.56
2014-08-09T11:05:33.693Z,47.68
2014-08-09T11:06:38.398Z,48.75
2014-08-09T11:07:43.104Z,48.21
2014-08-09T11:08:48.090Z,47.84
2014-08-09T11:09:53.078Z,48.24
2014-08-09T11:10:57.766Z,49.15
2014-08-09T11:12:02.457Z,48.6
2014-08-09T11:13:07.145Z,47.98
2014-08-09T11:14:11.835Z,48.01
2014-08-09T11:15:16.837Z,47.51
2014-08-09T11:16:21.526Z,47.9
2014-08-09T11:17:26.216Z,48.55
2014-08-09T11:18:30.905Z,48.3
2014-08-09T11:19:35.893Z,48.23
2014-08-09T11:20:40.622Z,48.81
2014-08-09T11:21:45.650Z,48.7
2014-08-09T11:22:50.421Z,48.55
2014-08-09T11:23:55.446Z,48.57
2014-08-09T11:25:00.151Z,48.01
2014-08-09T11:26:04.854Z,48.51
2014-08-09T11:27:09.559Z,48.3
2014-08-09T11:28:13.575Z,48.21
2014-08-09T11:29:18.279Z,48.18
2014-08-09T11:30:22.974Z,48.21
2014-08-09T11:31:27.668Z,48.41
2014-08-09T11:32:32.660Z,47.58
2014-08-09T11:33:37.355Z,48.12
2014-08-09T11:34:42.050Z,48.3
2014-08-09T11:35:47.038Z,48.05
2014-08-09T11:36:51.046Z,47.97
2014-08-09T11:37:55.737Z,47.46
2014-08-09T11:39:00.428Z,47.39
2014-08-09T11:40:05.415Z,46.86
2014-08-09T11:41:10.105Z,47
2014-08-09T11:42:14.795Z,46.71
2014-08-09T11:43:19.782Z,47.25
2014-08-09T11:44:24.472Z,47.86
2014-08-09T11:45:29.459Z,46.91
2014-08-09T11:46:34.446Z,46.2
2014-08-09T11:47:39.136Z,46.37
2014-08-09T11:48:43.826Z,48.39
2014-08-09T11:49:48.516Z,46.95
2014-08-09T11:50:53.205Z,45.32
2014-08-09T11:51:57.894Z,45.41
2014-08-09T11:53:02.584Z,44.8
2014-08-09T11:54:07.274Z,44.99
2014-08-09T11:55:11.963Z,45.89
2014-08-09T11:56:16.653Z,45.21
2014-08-09T11:57:21.343Z,45.09
2014-08-09T11:58:26.032Z,43.82
2014-08-09T11:59:30.722Z,43.25
2014-08-09T12:00:35.412Z,42.97
2014-08-09T12:01:39.414Z,43.62
2014-08-09T12:02:44.400Z,43.29
2014-08-09T12:03:49.386Z,42.42
2014-08-09T12:04:54.076Z,43.88
2014-08-09T12:05:58.765Z,44.4
2014-08-09T12:07:03.767Z,43.31
2014-08-09T12:08:08.456Z,42.28
2014-08-09T12:09:13.146Z,42.26
2014-08-09T12:10:17.836Z,42.81
2014-08-09T12:11:21.837Z,41.96
2014-08-09T12:12:26.527Z,41.47
2014-08-09T12:13:31.217Z,41.74
2014-08-09T12:14:35.218Z,39.5
2014-08-09T12:15:39.907Z,39.58
2014-08-09T12:16:44.597Z,39.48
2014-08-09T12:17:49.286Z,38.75
2014-08-09T12:18:53.978Z,39.92
2014-08-09T12:19:58.667Z,40.13
2014-08-09T12:21:03.357Z,40.28
2014-08-09T12:22:08.046Z,39.59
2014-08-09T12:23:12.736Z,44.23
2014-08-09T12:24:17.424Z,40.01
2014-08-09T12:25:22.114Z,40.21
2014-08-09T12:26:27.100Z,41.09
2014-08-09T12:27:32.087Z,42.35
2014-08-09T12:28:36.776Z,40.72
2014-08-09T12:29:41.466Z,39.39
2014-08-09T12:30:46.155Z,41.1
2014-08-09T12:31:50.860Z,40.46
2014-08-09T12:32:55.552Z,41.7
2014-08-09T12:34:00.241Z,39.87
2014-08-09T12:35:04.931Z,41.41
2014-08-09T12:36:09.619Z,41.21
2014-08-09T12:37:14.607Z,40.43
2014-08-09T12:38:19.296Z,40.01
2014-08-09T12:39:24.283Z,40.49
2014-08-09T12:40:29.269Z,40.13
2014-08-09T12:41:33.958Z,41.48
2014-08-09T12:42:38.945Z,41.84
2014-08-09T12:43:43.635Z,40.61
2014-08-09T12:44:48.324Z,41.41
2014-08-09T12:45:53.014Z,40.63
2014-08-09T12:46:57.718Z,40.75
2014-08-09T12:48:02.408Z,41.45
2014-08-09T12:49:07.395Z,41.59
2014-08-09T12:50:12.381Z,42.97
2014-08-09T12:51:17.367Z,43.31
2014-08-09T12:52:22.057Z,43.82
2014-08-09T12:53:26.746Z,44.72
2014-08-09T12:54:31.436Z,44.53
2014-08-09T12:55:36.438Z,45.04
2014-08-09T12:56:41.127Z,45.05
2014-08-09T12:57:46.113Z,44.99
2014-08-09T12:58:50.802Z,44.38
2014-08-09T12:59:55.494Z,44.18
2014-08-09T13:01:00.184Z,44.1
2014-08-09T13:02:04.872Z,45.62
2014-08-09T13:03:09.562Z,45.87
2014-08-09T13:04:14.252Z,45.75
2014-08-09T13:05:18.941Z,45.43
2014-08-09T13:06:23.630Z,45.28
2014-08-09T13:07:28.320Z,44.26
2014-08-09T13:08:33.025Z,44.88
2014-08-09T13:09:37.715Z,45.48
2014-08-09T13:10:42.701Z,44.49
2014-08-09T13:11:47.389Z,43.98
2014-08-09T13:12:52.080Z,43.88
2014-08-09T13:13:56.786Z,43.83
2014-08-09T13:15:01.476Z,42.77
2014-08-09T13:16:06.463Z,43.81
2014-08-09T13:17:11.449Z,43.19
2014-08-09T13:18:16.138Z,43.89
2014-08-09T13:19:21.124Z,43.96
2014-08-09T13:20:25.829Z,45.63
2014-08-09T13:21:30.816Z,44.22
2014-08-09T13:22:36.099Z,43.15
2014-08-09T13:23:41.085Z,42.73
2014-08-09T13:24:45.789Z,43.06
2014-08-09T13:25:50.480Z,43.6
2014-08-09T13:26:55.170Z,43.67
2014-08-09T13:27:59.860Z,43.4
2014-08-09T13:29:04.549Z,43.64
2014-08-09T13:30:09.239Z,43.74
2014-08-09T13:31:13.945Z,44.04
2014-08-09T13:32:18.634Z,43.5
2014-08-09T13:33:23.324Z,43.81
2014-08-09T13:34:28.014Z,43.71
2014-08-09T13:35:32.702Z,44.22
2014-08-09T13:36:37.392Z,44.1
2014-08-09T13:37:42.379Z,43.91
2014-08-09T13:38:47.084Z,44.36
2014-08-09T13:39:51.775Z,45.03
2014-08-09T13:40:56.760Z,44.46
2014-08-09T13:42:01.449Z,44.13
2014-08-09T13:43:06.139Z,43.68
2014-08-09T13:44:10.453Z,43.36
2014-08-09T13:45:15.143Z,43.17
2014-08-09T13:46:20.129Z,42.86
2014-08-09T13:47:24.819Z,44.15
2014-08-09T13:48:29.805Z,43.86
2014-08-09T13:49:34.806Z,43.91
2014-08-09T13:50:39.496Z,44.56
2014-08-09T13:51:44.202Z,43.38
2014-08-09T13:52:48.891Z,43.43
2014-08-09T13:53:53.580Z,44.73
2014-08-09T13:54:58.271Z,43.8
2014-08-09T13:56:02.960Z,43.56
2014-08-09T13:57:07.649Z,43.84